sensor_id;sensor_type;location;lat;lon;timestamp;pressure;altitude;pressure_sealevel;temperature;humidity
77047;BME280;65977;56.380;44.022;2023-02-28T00:00:33;100747.41;;;-3.53;53.03
77047;BME280;65977;56.380;44.022;2023-02-28T00:02:59;100740.72;;;-3.60;52.92
77047;BME280;65977;56.380;44.022;2023-02-28T00:05:26;100734.91;;;-3.68;52.21
77047;BME280;65977;56.380;44.022;2023-02-28T00:07:52;100742.91;;;-3.78;52.43
77047;BME280;65977;56.380;44.022;2023-02-28T00:10:23;100733.78;;;-3.92;52.93
77047;BME280;65977;56.380;44.022;2023-02-28T00:12:50;100733.19;;;-4.04;53.01
77047;BME280;65977;56.380;44.022;2023-02-28T00:15:16;100730.91;;;-4.16;52.96
77047;BME280;65977;56.380;44.022;2023-02-28T00:17:43;100740.53;;;-4.24;53.43
77047;BME280;65977;56.380;44.022;2023-02-28T00:20:09;100738.13;;;-4.32;53.81
77047;BME280;65977;56.380;44.022;2023-02-28T00:22:36;100731.41;;;-4.37;53.77
77047;BME280;65977;56.380;44.022;2023-02-28T00:25:03;100713.53;;;-4.45;53.91
77047;BME280;65977;56.380;44.022;2023-02-28T00:27:30;100716.16;;;-4.48;53.96
77047;BME280;65977;56.380;44.022;2023-02-28T00:29:55;100703.44;;;-4.57;53.74
77047;BME280;65977;56.380;44.022;2023-02-28T00:32:21;100718.09;;;-4.58;53.69
77047;BME280;65977;56.380;44.022;2023-02-28T00:34:47;100703.56;;;-4.62;54.24
77047;BME280;65977;56.380;44.022;2023-02-28T00:37:12;100695.94;;;-4.66;54.46
77047;BME280;65977;56.380;44.022;2023-02-28T00:39:39;100700.28;;;-4.70;54.33
77047;BME280;65977;56.380;44.022;2023-02-28T00:42:05;100697.75;;;-4.71;54.73
77047;BME280;65977;56.380;44.022;2023-02-28T00:44:32;100691.78;;;-4.73;54.70
77047;BME280;65977;56.380;44.022;2023-02-28T00:46:58;100689.28;;;-4.78;54.72
77047;BME280;65977;56.380;44.022;2023-02-28T00:49:25;100689.34;;;-4.79;54.71
77047;BME280;65977;56.380;44.022;2023-02-28T00:51:51;100683.44;;;-4.84;55.21
77047;BME280;65977;56.380;44.022;2023-02-28T00:54:18;100676.72;;;-4.91;55.52
77047;BME280;65977;56.380;44.022;2023-02-28T00:56:43;100681.81;;;-4.88;55.81
77047;BME280;65977;56.380;44.022;2023-02-28T00:59:12;100679.28;;;-4.91;55.44
77047;BME280;65977;56.380;44.022;2023-02-28T01:01:38;100670.72;;;-4.92;55.64
77047;BME280;65977;56.380;44.022;2023-02-28T01:04:03;100677.53;;;-4.89;55.23
77047;BME280;65977;56.380;44.022;2023-02-28T01:06:30;100670.72;;;-4.92;55.55
77047;BME280;65977;56.380;44.022;2023-02-28T01:08:57;100653.63;;;-4.96;55.98
77047;BME280;65977;56.380;44.022;2023-02-28T01:11:23;100651.06;;;-4.97;55.95
77047;BME280;65977;56.380;44.022;2023-02-28T01:13:48;100651.94;;;-4.97;55.90
77047;BME280;65977;56.380;44.022;2023-02-28T01:16:14;100637.34;;;-4.98;55.74
77047;BME280;65977;56.380;44.022;2023-02-28T01:18:40;100628.91;;;-5.04;55.85
77047;BME280;65977;56.380;44.022;2023-02-28T01:21:08;100632.28;;;-5.02;56.42
77047;BME280;65977;56.380;44.022;2023-02-28T01:23:34;100647.78;;;-5.04;56.44
77047;BME280;65977;56.380;44.022;2023-02-28T01:26:12;100634.09;;;-5.07;56.16
77047;BME280;65977;56.380;44.022;2023-02-28T01:28:39;100632.38;;;-5.07;56.19
77047;BME280;65977;56.380;44.022;2023-02-28T01:31:05;100632.50;;;-5.13;56.31
77047;BME280;65977;56.380;44.022;2023-02-28T01:33:31;100627.44;;;-5.16;56.77
77047;BME280;65977;56.380;44.022;2023-02-28T01:36:01;100635.94;;;-5.13;56.84
77047;BME280;65977;56.380;44.022;2023-02-28T01:38:27;100636.84;;;-5.14;56.39
77047;BME280;65977;56.380;44.022;2023-02-28T01:40:53;100624.19;;;-5.26;56.73
77047;BME280;65977;56.380;44.022;2023-02-28T01:45:47;100614.63;;;-5.19;56.85
77047;BME280;65977;56.380;44.022;2023-02-28T01:48:12;100633.56;;;-5.23;57.27
77047;BME280;65977;56.380;44.022;2023-02-28T01:50:41;100612.06;;;-5.21;57.14
77047;BME280;65977;56.380;44.022;2023-02-28T01:53:13;100616.41;;;-5.23;57.03
77047;BME280;65977;56.380;44.022;2023-02-28T01:55:40;100612.13;;;-5.24;57.04
77047;BME280;65977;56.380;44.022;2023-02-28T01:58:08;100615.59;;;-5.25;56.99
77047;BME280;65977;56.380;44.022;2023-02-28T02:00:34;100604.53;;;-5.30;57.11
77047;BME280;65977;56.380;44.022;2023-02-28T02:03:05;100587.31;;;-5.28;57.15
77047;BME280;65977;56.380;44.022;2023-02-28T02:05:32;100572.91;;;-5.36;57.73
77047;BME280;65977;56.380;44.022;2023-02-28T02:08:04;100581.47;;;-5.36;57.58
77047;BME280;65977;56.380;44.022;2023-02-28T02:10:39;100584.00;;;-5.33;57.81
77047;BME280;65977;56.380;44.022;2023-02-28T02:27:25;100555.09;;;-5.45;57.69
77047;BME280;65977;56.380;44.022;2023-02-28T02:32:28;100537.97;;;-5.48;58.29
77047;BME280;65977;56.380;44.022;2023-02-28T02:35:13;100537.19;;;-5.51;58.49
77047;BME280;65977;56.380;44.022;2023-02-28T02:43:58;100526.81;;;-5.48;58.39
77047;BME280;65977;56.380;44.022;2023-02-28T02:46:25;100510.56;;;-5.50;58.30
77047;BME280;65977;56.380;44.022;2023-02-28T02:48:55;100521.72;;;-5.50;58.43
77047;BME280;65977;56.380;44.022;2023-02-28T02:51:26;100530.25;;;-5.48;58.11
77047;BME280;65977;56.380;44.022;2023-02-28T02:53:57;100507.03;;;-5.46;58.39
77047;BME280;65977;56.380;44.022;2023-02-28T02:56:28;100498.44;;;-5.45;58.26
77047;BME280;65977;56.380;44.022;2023-02-28T02:58:58;100492.38;;;-5.43;58.44
77047;BME280;65977;56.380;44.022;2023-02-28T03:01:25;100472.66;;;-5.42;58.48
77047;BME280;65977;56.380;44.022;2023-02-28T03:03:56;100459.03;;;-5.47;58.59
77047;BME280;65977;56.380;44.022;2023-02-28T03:06:24;100458.06;;;-5.42;58.13
77047;BME280;65977;56.380;44.022;2023-02-28T03:08:49;100440.06;;;-5.43;58.18
77047;BME280;65977;56.380;44.022;2023-02-28T03:11:15;100448.50;;;-5.38;58.23
77047;BME280;65977;56.380;44.022;2023-02-28T03:22:34;100409.03;;;-5.37;58.12
77047;BME280;65977;56.380;44.022;2023-02-28T03:28:23;100393.50;;;-5.34;57.66
77047;BME280;65977;56.380;44.022;2023-02-28T03:31:11;100379.06;;;-5.40;57.99
77047;BME280;65977;56.380;44.022;2023-02-28T03:36:37;100375.31;;;-5.27;57.33
77047;BME280;65977;56.380;44.022;2023-02-28T03:39:13;100363.25;;;-5.25;57.38
77047;BME280;65977;56.380;44.022;2023-02-28T03:41:50;100362.38;;;-5.25;57.03
77047;BME280;65977;56.380;44.022;2023-02-28T03:46:51;100365.56;;;-5.14;56.43
77047;BME280;65977;56.380;44.022;2023-02-28T03:49:30;100344.03;;;-5.12;56.78
77047;BME280;65977;56.380;44.022;2023-02-28T03:51:58;100351.69;;;-5.08;56.58
77047;BME280;65977;56.380;44.022;2023-02-28T03:54:31;100351.56;;;-5.05;56.36
77047;BME280;65977;56.380;44.022;2023-02-28T03:57:04;100342.09;;;-5.03;55.83
77047;BME280;65977;56.380;44.022;2023-02-28T03:59:42;100324.91;;;-5.03;55.70
77047;BME280;65977;56.380;44.022;2023-02-28T04:02:09;100304.97;;;-4.96;55.95
77047;BME280;65977;56.380;44.022;2023-02-28T04:04:35;100312.72;;;-4.96;55.61
77047;BME280;65977;56.380;44.022;2023-02-28T04:07:05;100290.03;;;-4.84;55.47
77047;BME280;65977;56.380;44.022;2023-02-28T04:09:31;100283.88;;;-4.78;54.49
77047;BME280;65977;56.380;44.022;2023-02-28T04:11:57;100274.09;;;-4.67;54.68
77047;BME280;65977;56.380;44.022;2023-02-28T04:14:23;100269.66;;;-4.62;54.21
77047;BME280;65977;56.380;44.022;2023-02-28T04:16:49;100272.84;;;-4.53;53.40
77047;BME280;65977;56.380;44.022;2023-02-28T04:19:16;100268.25;;;-4.43;53.29
77047;BME280;65977;56.380;44.022;2023-02-28T04:21:47;100250.00;;;-4.37;52.66
77047;BME280;65977;56.380;44.022;2023-02-28T04:24:15;100245.31;;;-4.24;52.81
77047;BME280;65977;56.380;44.022;2023-02-28T04:26:44;100249.19;;;-4.10;52.76
77047;BME280;65977;56.380;44.022;2023-02-28T04:29:13;100228.31;;;-4.02;52.17
77047;BME280;65977;56.380;44.022;2023-02-28T04:31:39;100223.44;;;-3.85;52.00
77047;BME280;65977;56.380;44.022;2023-02-28T04:34:05;100222.34;;;-3.53;51.79
77047;BME280;65977;56.380;44.022;2023-02-28T04:36:31;100229.19;;;-2.78;49.76
77047;BME280;65977;56.380;44.022;2023-02-28T04:38:57;100212.28;;;-1.57;47.26
77047;BME280;65977;56.380;44.022;2023-02-28T04:41:23;100196.69;;;0.14;43.94
77047;BME280;65977;56.380;44.022;2023-02-28T04:43:51;100198.22;;;1.19;41.48
77047;BME280;65977;56.380;44.022;2023-02-28T04:46:17;100189.75;;;1.63;39.58
77047;BME280;65977;56.380;44.022;2023-02-28T04:48:43;100181.78;;;1.81;39.25
77047;BME280;65977;56.380;44.022;2023-02-28T04:51:15;100168.88;;;2.39;38.33
77047;BME280;65977;56.380;44.022;2023-02-28T04:53:41;100164.78;;;3.62;36.15
77047;BME280;65977;56.380;44.022;2023-02-28T04:56:11;100167.41;;;5.05;34.37
77047;BME280;65977;56.380;44.022;2023-02-28T04:58:37;100153.25;;;6.52;31.84
77047;BME280;65977;56.380;44.022;2023-02-28T05:01:06;100173.63;;;7.72;28.75
77047;BME280;65977;56.380;44.022;2023-02-28T05:03:41;100158.88;;;8.75;28.38
77047;BME280;65977;56.380;44.022;2023-02-28T05:06:08;100165.53;;;9.80;27.06
77047;BME280;65977;56.380;44.022;2023-02-28T05:08:34;100156.19;;;10.25;24.49
77047;BME280;65977;56.380;44.022;2023-02-28T05:11:00;100157.53;;;10.00;25.55
77047;BME280;65977;56.380;44.022;2023-02-28T05:13:27;100151.19;;;9.23;26.65
77047;BME280;65977;56.380;44.022;2023-02-28T05:15:53;100154.97;;;7.75;27.09
77047;BME280;65977;56.380;44.022;2023-02-28T05:18:19;100148.16;;;6.26;29.37
77047;BME280;65977;56.380;44.022;2023-02-28T05:20:45;100153.50;;;4.92;31.86
77047;BME280;65977;56.380;44.022;2023-02-28T05:23:14;100132.69;;;3.87;32.84
77047;BME280;65977;56.380;44.022;2023-02-28T05:25:41;100135.50;;;3.57;33.80
77047;BME280;65977;56.380;44.022;2023-02-28T05:28:07;100122.00;;;3.10;34.24
77047;BME280;65977;56.380;44.022;2023-02-28T05:30:32;100113.03;;;2.86;34.91
77047;BME280;65977;56.380;44.022;2023-02-28T05:32:59;100112.28;;;2.70;35.21
77047;BME280;65977;56.380;44.022;2023-02-28T05:35:26;100082.75;;;2.55;35.25
77047;BME280;65977;56.380;44.022;2023-02-28T05:37:52;100093.56;;;2.63;35.53
77047;BME280;65977;56.380;44.022;2023-02-28T05:40:17;100077.72;;;2.52;34.96
77047;BME280;65977;56.380;44.022;2023-02-28T05:42:45;100079.59;;;2.50;35.79
77047;BME280;65977;56.380;44.022;2023-02-28T05:45:11;100046.53;;;2.50;35.38
77047;BME280;65977;56.380;44.022;2023-02-28T05:47:37;100048.94;;;2.39;35.60
77047;BME280;65977;56.380;44.022;2023-02-28T05:50:04;100055.38;;;2.34;36.13
77047;BME280;65977;56.380;44.022;2023-02-28T05:52:30;100057.03;;;2.35;36.53
77047;BME280;65977;56.380;44.022;2023-02-28T05:54:56;100035.38;;;2.48;35.81
77047;BME280;65977;56.380;44.022;2023-02-28T05:57:22;100023.88;;;2.79;35.52
77047;BME280;65977;56.380;44.022;2023-02-28T05:59:48;100026.56;;;2.78;34.42
77047;BME280;65977;56.380;44.022;2023-02-28T06:02:15;100009.28;;;2.63;35.04
77047;BME280;65977;56.380;44.022;2023-02-28T06:04:41;100018.59;;;2.67;35.00
77047;BME280;65977;56.380;44.022;2023-02-28T06:07:08;100001.16;;;2.67;35.03
77047;BME280;65977;56.380;44.022;2023-02-28T06:09:34;99995.66;;;2.72;34.59
77047;BME280;65977;56.380;44.022;2023-02-28T06:12:01;99978.66;;;2.93;34.52
77047;BME280;65977;56.380;44.022;2023-02-28T06:14:29;99967.69;;;3.14;33.74
77047;BME280;65977;56.380;44.022;2023-02-28T06:16:57;99973.25;;;3.62;32.94
77047;BME280;65977;56.380;44.022;2023-02-28T06:19:23;99971.13;;;3.54;32.19
77047;BME280;65977;56.380;44.022;2023-02-28T06:21:52;99956.84;;;3.60;31.87
77047;BME280;65977;56.380;44.022;2023-02-28T06:24:21;99944.50;;;3.62;32.36
77047;BME280;65977;56.380;44.022;2023-02-28T06:26:48;99926.59;;;3.43;32.05
77047;BME280;65977;56.380;44.022;2023-02-28T06:29:14;99920.38;;;3.46;32.69
77047;BME280;65977;56.380;44.022;2023-02-28T06:31:44;99921.38;;;3.43;32.57
77047;BME280;65977;56.380;44.022;2023-02-28T06:34:11;99914.41;;;3.56;32.80
77047;BME280;65977;56.380;44.022;2023-02-28T06:36:38;99903.34;;;3.91;32.38
77047;BME280;65977;56.380;44.022;2023-02-28T06:39:05;99902.09;;;4.09;31.78
77047;BME280;65977;56.380;44.022;2023-02-28T06:41:31;99901.63;;;4.27;31.82
77047;BME280;65977;56.380;44.022;2023-02-28T06:44:12;99858.16;;;4.74;30.58
77047;BME280;65977;56.380;44.022;2023-02-28T06:46:43;99857.31;;;7.08;28.65
77047;BME280;65977;56.380;44.022;2023-02-28T06:49:10;99845.81;;;9.28;26.03
77047;BME280;65977;56.380;44.022;2023-02-28T06:51:38;99844.47;;;10.71;24.17
77047;BME280;65977;56.380;44.022;2023-02-28T06:54:04;99832.63;;;11.11;23.39
77047;BME280;65977;56.380;44.022;2023-02-28T06:56:31;99831.09;;;12.37;22.00
77047;BME280;65977;56.380;44.022;2023-02-28T06:58:56;99808.50;;;13.79;20.99
77047;BME280;65977;56.380;44.022;2023-02-28T07:01:22;99798.66;;;15.34;19.92
77047;BME280;65977;56.380;44.022;2023-02-28T07:03:49;99809.97;;;15.73;18.56
77047;BME280;65977;56.380;44.022;2023-02-28T07:06:19;99809.44;;;16.07;19.14
77047;BME280;65977;56.380;44.022;2023-02-28T07:08:45;99789.63;;;17.02;16.83
77047;BME280;65977;56.380;44.022;2023-02-28T07:11:10;99777.44;;;17.97;17.19
77047;BME280;65977;56.380;44.022;2023-02-28T07:13:36;99770.03;;;17.99;17.31
77047;BME280;65977;56.380;44.022;2023-02-28T07:16:04;99773.41;;;18.14;17.23
77047;BME280;65977;56.380;44.022;2023-02-28T07:18:31;99765.63;;;19.00;16.44
77047;BME280;65977;56.380;44.022;2023-02-28T07:20:57;99780.69;;;19.66;15.65
77047;BME280;65977;56.380;44.022;2023-02-28T07:23:23;99771.44;;;19.42;15.58
77047;BME280;65977;56.380;44.022;2023-02-28T07:25:50;99781.25;;;18.76;15.89
77047;BME280;65977;56.380;44.022;2023-02-28T07:28:16;99767.59;;;18.04;15.94
77047;BME280;65977;56.380;44.022;2023-02-28T07:30:42;99750.34;;;17.17;16.65
77047;BME280;65977;56.380;44.022;2023-02-28T07:33:08;99739.25;;;16.71;17.05
77047;BME280;65977;56.380;44.022;2023-02-28T07:35:34;99752.00;;;16.55;17.12
77047;BME280;65977;56.380;44.022;2023-02-28T07:38:00;99728.47;;;16.43;17.43
77047;BME280;65977;56.380;44.022;2023-02-28T07:40:26;99742.66;;;16.29;16.75
77047;BME280;65977;56.380;44.022;2023-02-28T07:42:52;99714.25;;;15.86;17.63
77047;BME280;65977;56.380;44.022;2023-02-28T07:45:18;99718.81;;;14.96;18.37
77047;BME280;65977;56.380;44.022;2023-02-28T07:47:44;99711.06;;;13.80;19.50
77047;BME280;65977;56.380;44.022;2023-02-28T07:50:13;99721.97;;;12.41;20.49
77047;BME280;65977;56.380;44.022;2023-02-28T07:52:40;99696.50;;;10.97;21.96
77047;BME280;65977;56.380;44.022;2023-02-28T07:55:08;99735.88;;;9.75;23.03
77047;BME280;65977;56.380;44.022;2023-02-28T07:57:34;99728.38;;;8.68;24.36
77047;BME280;65977;56.380;44.022;2023-02-28T08:00:00;99728.50;;;7.79;25.64
77047;BME280;65977;56.380;44.022;2023-02-28T08:02:27;99720.81;;;6.96;26.88
77047;BME280;65977;56.380;44.022;2023-02-28T08:04:53;99726.13;;;6.33;27.96
77047;BME280;65977;56.380;44.022;2023-02-28T08:07:18;99735.16;;;5.86;28.53
77047;BME280;65977;56.380;44.022;2023-02-28T08:09:44;99736.72;;;5.55;29.48
77047;BME280;65977;56.380;44.022;2023-02-28T08:12:11;99720.03;;;5.23;30.27
77047;BME280;65977;56.380;44.022;2023-02-28T08:14:37;99723.22;;;5.04;30.54
77047;BME280;65977;56.380;44.022;2023-02-28T08:17:03;99742.13;;;4.97;31.42
77047;BME280;65977;56.380;44.022;2023-02-28T08:19:29;99732.81;;;4.82;31.72
77047;BME280;65977;56.380;44.022;2023-02-28T08:21:55;99728.47;;;4.59;32.69
77047;BME280;65977;56.380;44.022;2023-02-28T08:24:22;99719.69;;;4.36;33.12
77047;BME280;65977;56.380;44.022;2023-02-28T08:26:48;99708.19;;;4.15;33.29
77047;BME280;65977;56.380;44.022;2023-02-28T08:29:13;99710.41;;;4.08;33.95
77047;BME280;65977;56.380;44.022;2023-02-28T08:31:39;99708.97;;;4.04;34.12
77047;BME280;65977;56.380;44.022;2023-02-28T08:34:07;99714.81;;;4.08;34.39
77047;BME280;65977;56.380;44.022;2023-02-28T08:36:32;99705.03;;;3.99;34.44
77047;BME280;65977;56.380;44.022;2023-02-28T08:38:58;99704.91;;;4.00;34.33
77047;BME280;65977;56.380;44.022;2023-02-28T08:41:25;99693.00;;;3.96;34.32
77047;BME280;65977;56.380;44.022;2023-02-28T08:43:51;99689.34;;;3.99;34.93
77047;BME280;65977;56.380;44.022;2023-02-28T08:46:17;99679.09;;;3.96;34.65
77047;BME280;65977;56.380;44.022;2023-02-28T08:48:43;99683.16;;;4.00;34.50
77047;BME280;65977;56.380;44.022;2023-02-28T08:51:12;99679.16;;;4.07;34.75
77047;BME280;65977;56.380;44.022;2023-02-28T08:53:39;99668.81;;;4.05;34.66
77047;BME280;65977;56.380;44.022;2023-02-28T08:56:07;99662.72;;;4.05;34.84
77047;BME280;65977;56.380;44.022;2023-02-28T08:58:34;99658.69;;;4.01;34.98
77047;BME280;65977;56.380;44.022;2023-02-28T09:01:00;99645.47;;;3.91;35.35
77047;BME280;65977;56.380;44.022;2023-02-28T09:03:32;99641.59;;;3.84;35.43
77047;BME280;65977;56.380;44.022;2023-02-28T09:05:59;99660.16;;;3.81;35.79
77047;BME280;65977;56.380;44.022;2023-02-28T09:08:27;99652.34;;;3.68;35.68
77047;BME280;65977;56.380;44.022;2023-02-28T09:10:54;99651.34;;;3.58;35.89
77047;BME280;65977;56.380;44.022;2023-02-28T09:13:22;99656.78;;;3.55;36.61
77047;BME280;65977;56.380;44.022;2023-02-28T09:15:48;99656.59;;;3.46;37.43
77047;BME280;65977;56.380;44.022;2023-02-28T09:18:14;99670.81;;;3.42;37.39
77047;BME280;65977;56.380;44.022;2023-02-28T09:20:41;99650.47;;;3.34;37.31
77047;BME280;65977;56.380;44.022;2023-02-28T09:23:08;99657.66;;;3.31;37.72
77047;BME280;65977;56.380;44.022;2023-02-28T09:25:34;99672.81;;;3.26;37.95
77047;BME280;65977;56.380;44.022;2023-02-28T09:28:00;99660.53;;;3.15;38.47
77047;BME280;65977;56.380;44.022;2023-02-28T09:30:26;99653.84;;;3.11;38.34
77047;BME280;65977;56.380;44.022;2023-02-28T09:32:51;99656.25;;;3.01;38.50
77047;BME280;65977;56.380;44.022;2023-02-28T09:35:23;99669.09;;;2.92;39.05
77047;BME280;65977;56.380;44.022;2023-02-28T09:37:50;99669.72;;;2.83;39.25
77047;BME280;65977;56.380;44.022;2023-02-28T09:40:22;99657.50;;;2.71;39.06
77047;BME280;65977;56.380;44.022;2023-02-28T09:42:49;99654.16;;;2.56;39.63
77047;BME280;65977;56.380;44.022;2023-02-28T09:45:30;99664.66;;;2.42;39.93
77047;BME280;65977;56.380;44.022;2023-02-28T09:48:09;99650.16;;;2.25;40.21
77047;BME280;65977;56.380;44.022;2023-02-28T09:50:50;99652.66;;;2.27;40.37
77047;BME280;65977;56.380;44.022;2023-02-28T09:53:26;99637.53;;;2.19;40.73
77047;BME280;65977;56.380;44.022;2023-02-28T09:56:03;99644.31;;;2.22;41.44
77047;BME280;65977;56.380;44.022;2023-02-28T09:58:47;99637.22;;;2.24;41.21
77047;BME280;65977;56.380;44.022;2023-02-28T10:01:43;99640.47;;;2.27;41.17
77047;BME280;65977;56.380;44.022;2023-02-28T10:09:55;99632.81;;;2.12;41.94
77047;BME280;65977;56.380;44.022;2023-02-28T10:12:27;99636.66;;;2.06;42.08
77047;BME280;65977;56.380;44.022;2023-02-28T10:14:57;99636.53;;;1.95;42.30
77047;BME280;65977;56.380;44.022;2023-02-28T10:17:37;99641.69;;;1.82;42.76
77047;BME280;65977;56.380;44.022;2023-02-28T10:20:07;99637.91;;;1.74;43.43
77047;BME280;65977;56.380;44.022;2023-02-28T10:22:49;99627.59;;;1.72;43.40
77047;BME280;65977;56.380;44.022;2023-02-28T10:25:26;99615.00;;;1.79;43.28
77047;BME280;65977;56.380;44.022;2023-02-28T10:28:01;99616.19;;;1.87;43.38
77047;BME280;65977;56.380;44.022;2023-02-28T10:30:30;99617.03;;;1.88;43.46
77047;BME280;65977;56.380;44.022;2023-02-28T10:32:56;99607.97;;;1.93;43.67
77047;BME280;65977;56.380;44.022;2023-02-28T10:35:26;99615.91;;;2.05;43.99
77047;BME280;65977;56.380;44.022;2023-02-28T10:37:58;99605.00;;;2.12;44.02
77047;BME280;65977;56.380;44.022;2023-02-28T10:40:29;99609.03;;;2.04;44.75
77047;BME280;65977;56.380;44.022;2023-02-28T10:45:38;99615.03;;;1.91;46.34
77047;BME280;65977;56.380;44.022;2023-02-28T10:48:06;99613.34;;;1.78;46.93
77047;BME280;65977;56.380;44.022;2023-02-28T10:50:52;99604.53;;;1.66;47.41
77047;BME280;65977;56.380;44.022;2023-02-28T11:03:57;99569.47;;;1.04;49.77
77047;BME280;65977;56.380;44.022;2023-02-28T11:06:28;99569.00;;;1.12;50.13
77047;BME280;65977;56.380;44.022;2023-02-28T11:09:00;99569.56;;;1.17;51.43
77047;BME280;65977;56.380;44.022;2023-02-28T11:11:29;99573.28;;;1.27;50.60
77047;BME280;65977;56.380;44.022;2023-02-28T11:14:04;99577.44;;;1.30;50.95
77047;BME280;65977;56.380;44.022;2023-02-28T11:16:35;99587.09;;;1.27;51.04
77047;BME280;65977;56.380;44.022;2023-02-28T11:19:04;99570.13;;;1.22;50.85
77047;BME280;65977;56.380;44.022;2023-02-28T11:21:34;99566.88;;;1.18;51.21
77047;BME280;65977;56.380;44.022;2023-02-28T11:24:27;99553.97;;;1.17;50.84
77047;BME280;65977;56.380;44.022;2023-02-28T11:26:54;99567.78;;;1.17;50.71
77047;BME280;65977;56.380;44.022;2023-02-28T11:29:25;99560.16;;;1.14;50.68
77047;BME280;65977;56.380;44.022;2023-02-28T11:34:28;99562.81;;;1.00;51.85
77047;BME280;65977;56.380;44.022;2023-02-28T11:36:56;99561.34;;;0.96;52.02
77047;BME280;65977;56.380;44.022;2023-02-28T11:39:23;99558.75;;;0.96;52.48
77047;BME280;65977;56.380;44.022;2023-02-28T11:47:10;99562.91;;;0.99;52.33
77047;BME280;65977;56.380;44.022;2023-02-28T11:52:26;99555.38;;;1.08;53.31
77047;BME280;65977;56.380;44.022;2023-02-28T11:55:07;99551.00;;;1.09;53.72
77047;BME280;65977;56.380;44.022;2023-02-28T12:03:26;99542.56;;;1.05;54.11
77047;BME280;65977;56.380;44.022;2023-02-28T12:06:05;99539.09;;;1.05;54.21
77047;BME280;65977;56.380;44.022;2023-02-28T12:11:55;99532.03;;;1.07;53.92
77047;BME280;65977;56.380;44.022;2023-02-28T12:17:19;99518.31;;;1.05;54.36
77047;BME280;65977;56.380;44.022;2023-02-28T12:19:57;99512.38;;;1.03;54.45
77047;BME280;65977;56.380;44.022;2023-02-28T12:28:02;99502.63;;;0.92;54.85
77047;BME280;65977;56.380;44.022;2023-02-28T12:30:32;99488.72;;;0.93;54.78
77047;BME280;65977;56.380;44.022;2023-02-28T12:33:06;99482.03;;;0.89;55.53
77047;BME280;65977;56.380;44.022;2023-02-28T12:35:57;99484.84;;;0.86;55.71
77047;BME280;65977;56.380;44.022;2023-02-28T12:38:29;99480.66;;;0.84;56.02
77047;BME280;65977;56.380;44.022;2023-02-28T12:41:13;99469.03;;;0.89;55.21
77047;BME280;65977;56.380;44.022;2023-02-28T12:43:44;99460.47;;;0.87;55.67
77047;BME280;65977;56.380;44.022;2023-02-28T12:46:29;99456.22;;;0.86;55.37
77047;BME280;65977;56.380;44.022;2023-02-28T12:48:59;99463.38;;;0.83;55.67
77047;BME280;65977;56.380;44.022;2023-02-28T12:51:26;99469.06;;;0.75;55.37
77047;BME280;65977;56.380;44.022;2023-02-28T12:59:40;99459.44;;;0.63;55.77
77047;BME280;65977;56.380;44.022;2023-02-28T13:10:48;99444.81;;;0.48;57.00
77047;BME280;65977;56.380;44.022;2023-02-28T13:13:27;99443.31;;;0.44;57.70
77047;BME280;65977;56.380;44.022;2023-02-28T13:16:06;99446.66;;;0.46;58.20
77047;BME280;65977;56.380;44.022;2023-02-28T13:18:45;99444.03;;;0.46;57.44
77047;BME280;65977;56.380;44.022;2023-02-28T13:21:26;99442.22;;;0.48;58.10
77047;BME280;65977;56.380;44.022;2023-02-28T13:34:32;99433.03;;;0.42;58.06
77047;BME280;65977;56.380;44.022;2023-02-28T13:47:45;99423.00;;;0.36;58.45
77047;BME280;65977;56.380;44.022;2023-02-28T13:58:54;99410.50;;;0.29;58.87
77047;BME280;65977;56.380;44.022;2023-02-28T14:04:40;99409.09;;;0.23;59.38
77047;BME280;65977;56.380;44.022;2023-02-28T14:07:17;99414.41;;;0.22;59.54
77047;BME280;65977;56.380;44.022;2023-02-28T14:09:50;99404.19;;;0.19;59.17
77047;BME280;65977;56.380;44.022;2023-02-28T14:15:27;99395.66;;;0.17;59.21
77047;BME280;65977;56.380;44.022;2023-02-28T14:17:55;99401.88;;;0.14;59.25
77047;BME280;65977;56.380;44.022;2023-02-28T14:20:26;99399.47;;;0.11;59.21
77047;BME280;65977;56.380;44.022;2023-02-28T14:26:03;99396.78;;;0.13;59.54
77047;BME280;65977;56.380;44.022;2023-02-28T14:28:44;99395.41;;;0.07;59.75
77047;BME280;65977;56.380;44.022;2023-02-28T14:31:44;99399.75;;;0.07;59.61
77047;BME280;65977;56.380;44.022;2023-02-28T14:37:00;99386.03;;;0.05;59.64
77047;BME280;65977;56.380;44.022;2023-02-28T14:39:27;99384.28;;;0.05;59.65
77047;BME280;65977;56.380;44.022;2023-02-28T14:41:56;99391.06;;;0.08;59.75
77047;BME280;65977;56.380;44.022;2023-02-28T14:44:26;99390.03;;;0.10;59.31
77047;BME280;65977;56.380;44.022;2023-02-28T14:46:55;99389.25;;;0.08;59.62
77047;BME280;65977;56.380;44.022;2023-02-28T14:49:42;99388.34;;;0.09;60.12
77047;BME280;65977;56.380;44.022;2023-02-28T14:54:43;99366.19;;;0.04;59.28
77047;BME280;65977;56.380;44.022;2023-02-28T14:57:30;99377.03;;;0.10;59.87
77047;BME280;65977;56.380;44.022;2023-02-28T15:00:16;99383.81;;;0.13;59.51
77047;BME280;65977;56.380;44.022;2023-02-28T15:02:46;99373.59;;;0.10;59.42
77047;BME280;65977;56.380;44.022;2023-02-28T15:07:38;99377.84;;;0.11;59.35
77047;BME280;65977;56.380;44.022;2023-02-28T15:10:20;99369.16;;;0.12;59.72
77047;BME280;65977;56.380;44.022;2023-02-28T15:15:27;99368.13;;;0.14;59.95
77047;BME280;65977;56.380;44.022;2023-02-28T15:17:56;99365.22;;;0.19;59.33
77047;BME280;65977;56.380;44.022;2023-02-28T15:20:25;99361.16;;;0.15;59.82
77047;BME280;65977;56.380;44.022;2023-02-28T15:22:55;99367.00;;;0.18;60.40
77047;BME280;65977;56.380;44.022;2023-02-28T15:25:22;99363.66;;;0.16;60.11
77047;BME280;65977;56.380;44.022;2023-02-28T15:27:53;99365.34;;;0.17;60.13
77047;BME280;65977;56.380;44.022;2023-02-28T15:30:25;99365.22;;;0.19;59.67
77047;BME280;65977;56.380;44.022;2023-02-28T15:33:25;99357.25;;;0.22;59.46
77047;BME280;65977;56.380;44.022;2023-02-28T15:38:34;99355.69;;;0.19;60.00
77047;BME280;65977;56.380;44.022;2023-02-28T15:41:00;99350.38;;;0.21;60.15